createdAt,value
2019-04-26T00:00:51.026Z,15.20
2019-04-26T00:03:19.488Z,15.10
2019-04-26T00:05:46.048Z,15.10
2019-04-26T00:08:13.660Z,14.90
2019-04-26T00:10:42.918Z,14.80
2019-04-26T00:13:12.426Z,14.70
2019-04-26T00:15:44.190Z,14.70
2019-04-26T00:18:11.842Z,14.80
2019-04-26T00:20:39.091Z,14.80
2019-04-26T00:23:05.557Z,14.80
2019-04-26T00:25:32.130Z,14.80
2019-04-26T00:27:58.678Z,14.80
2019-04-26T00:30:25.198Z,14.80
2019-04-26T00:32:53.074Z,14.70
2019-04-26T00:35:19.941Z,14.60
2019-04-26T00:37:46.472Z,14.70
2019-04-26T00:40:14.256Z,14.60
2019-04-26T00:42:42.105Z,14.60
2019-04-26T00:45:08.635Z,14.60
2019-04-26T00:47:36.675Z,14.70
2019-04-26T00:50:06.195Z,14.60
2019-04-26T00:52:34.057Z,14.60
2019-04-26T00:55:00.763Z,14.50
2019-04-26T00:57:29.210Z,14.50
2019-04-26T00:59:55.948Z,14.60
2019-04-26T01:02:25.196Z,14.60
2019-04-26T01:04:51.850Z,14.60
2019-04-26T01:07:19.095Z,14.60
2019-04-26T01:09:45.793Z,14.50
2019-04-26T01:12:12.254Z,14.30
2019-04-26T01:14:39.873Z,14.30
2019-04-26T01:17:06.305Z,14.30
2019-04-26T01:19:33.655Z,14.30
2019-04-26T01:22:04.449Z,14.10
2019-04-26T01:24:34.117Z,14.10
2019-04-26T01:27:03.271Z,14.00
2019-04-26T01:29:30.807Z,13.90
2019-04-26T01:32:04.155Z,13.80
2019-04-26T01:34:31.888Z,13.90
2019-04-26T01:37:00.935Z,14.10
2019-04-26T01:39:27.978Z,14.10
2019-04-26T01:42:02.447Z,14.00
2019-04-26T01:44:49.689Z,14.10
2019-04-26T01:47:16.838Z,14.20
2019-04-26T01:49:44.076Z,14.20
2019-04-26T01:52:13.783Z,14.20
2019-04-26T01:54:43.309Z,14.10
2019-04-26T01:57:09.947Z,14.20
2019-04-26T01:59:41.494Z,14.20
2019-04-26T02:02:09.918Z,14.00
2019-04-26T02:04:39.053Z,14.00
2019-04-26T02:07:05.701Z,14.00
2019-04-26T02:09:32.744Z,14.00
2019-04-26T02:11:59.881Z,14.00
2019-04-26T02:14:26.918Z,14.00
2019-04-26T02:16:53.856Z,13.90
2019-04-26T02:19:20.504Z,14.00
2019-04-26T02:22:05.377Z,13.90
2019-04-26T02:24:36.761Z,14.00
2019-04-26T02:27:05.307Z,13.80
2019-04-26T02:29:32.641Z,13.80
2019-04-26T02:32:02.733Z,13.80
2019-04-26T02:34:33.891Z,13.80
2019-04-26T02:37:03.207Z,13.70
2019-04-26T02:39:34.109Z,13.90
2019-04-26T02:42:05.014Z,13.70
2019-04-26T02:44:38.514Z,13.80
2019-04-26T02:47:28.945Z,13.80
2019-04-26T02:50:00.469Z,13.80
2019-04-26T02:52:37.744Z,13.90
2019-04-26T02:55:27.877Z,13.90
2019-04-26T02:57:55.259Z,13.70
2019-04-26T03:00:21.905Z,13.60
2019-04-26T03:02:52.166Z,13.40
2019-04-26T03:05:19.420Z,13.20
2019-04-26T03:07:51.703Z,13.30
2019-04-26T03:10:21.869Z,13.30
2019-04-26T03:12:51.117Z,13.30
2019-04-26T03:15:28.519Z,13.40
2019-04-26T03:18:22.258Z,13.30
2019-04-26T03:20:52.540Z,13.10
2019-04-26T03:23:56.219Z,12.90
2019-04-26T03:26:43.345Z,12.90
2019-04-26T03:29:28.959Z,13.00
2019-04-26T03:32:16.136Z,13.00
2019-04-26T03:35:00.740Z,12.80
2019-04-26T03:37:48.097Z,12.60
2019-04-26T03:40:37.900Z,12.80
2019-04-26T03:43:16.715Z,12.90
2019-04-26T03:46:06.928Z,13.00
2019-04-26T03:48:46.493Z,13.00
2019-04-26T03:51:22.305Z,12.90
2019-04-26T03:54:18.176Z,12.80
2019-04-26T03:56:53.134Z,12.80
2019-04-26T03:59:25.303Z,12.90
2019-04-26T04:02:03.264Z,12.80
2019-04-26T04:04:42.793Z,12.90
2019-04-26T04:07:12.621Z,12.70
2019-04-26T04:09:42.937Z,12.70
2019-04-26T04:12:20.100Z,12.70
2019-04-26T04:15:13.553Z,12.60
2019-04-26T04:17:53.234Z,12.70
2019-04-26T04:20:38.458Z,12.60
2019-04-26T04:23:17.879Z,12.60
2019-04-26T04:25:49.247Z,12.60
2019-04-26T04:28:51.748Z,12.70
2019-04-26T04:31:39.761Z,12.60
2019-04-26T04:34:27.188Z,12.60
2019-04-26T04:36:57.443Z,12.60
2019-04-26T04:39:47.819Z,12.60
2019-04-26T04:42:37.913Z,12.70
2019-04-26T04:45:35.979Z,12.80
2019-04-26T04:48:19.815Z,12.80
2019-04-26T04:51:17.657Z,12.80
2019-04-26T04:54:14.690Z,12.80
2019-04-26T04:57:04.450Z,12.90
2019-04-26T04:59:59.057Z,13.00
2019-04-26T05:02:50.671Z,13.10
2019-04-26T05:05:28.835Z,13.10
2019-04-26T05:08:06.285Z,13.10
2019-04-26T05:10:40.410Z,13.20
2019-04-26T05:13:25.894Z,13.30
2019-04-26T05:16:13.180Z,13.50
2019-04-26T05:19:05.071Z,13.50
2019-04-26T05:21:45.337Z,13.60
2019-04-26T05:24:27.566Z,13.60
2019-04-26T05:27:28.818Z,13.70
2019-04-26T05:30:17.757Z,13.70
2019-04-26T05:33:09.448Z,13.70
2019-04-26T05:35:51.114Z,13.80
2019-04-26T05:38:39.698Z,13.80
2019-04-26T05:41:34.663Z,13.80
2019-04-26T05:44:15.928Z,13.90
2019-04-26T05:46:57.849Z,13.90
2019-04-26T05:49:57.993Z,13.90
2019-04-26T05:53:05.374Z,14.20
2019-04-26T05:55:43.594Z,14.20
2019-04-26T05:58:38.415Z,14.30
2019-04-26T06:01:34.402Z,14.40
2019-04-26T06:04:24.425Z,14.60
2019-04-26T06:07:13.313Z,14.60
2019-04-26T06:10:27.960Z,14.80
2019-04-26T06:13:18.155Z,14.90
2019-04-26T06:15:56.108Z,15.00
2019-04-26T06:18:48.864Z,15.10
2019-04-26T06:21:33.954Z,15.10
2019-04-26T06:24:19.298Z,15.30
2019-04-26T06:27:10.357Z,15.40
2019-04-26T06:29:39.006Z,15.40
2019-04-26T06:32:18.371Z,15.60
2019-04-26T06:34:48.609Z,15.60
2019-04-26T06:37:29.243Z,15.80
2019-04-26T06:40:08.617Z,16.00
2019-04-26T06:42:50.861Z,16.10
2019-04-26T06:45:37.524Z,16.20
2019-04-26T06:48:30.734Z,16.40
2019-04-26T06:51:24.513Z,16.30
2019-04-26T06:54:03.539Z,16.50
2019-04-26T06:56:35.735Z,16.60
2019-04-26T06:59:20.810Z,16.70
2019-04-26T07:01:57.959Z,16.80
2019-04-26T07:04:44.070Z,17.10
2019-04-26T07:07:35.578Z,17.20
2019-04-26T07:10:06.311Z,17.40
2019-04-26T07:12:54.961Z,17.50
2019-04-26T07:15:31.003Z,17.60
2019-04-26T07:18:13.266Z,17.80
2019-04-26T07:20:48.220Z,17.80
2019-04-26T07:23:35.543Z,17.90
2019-04-26T07:26:25.444Z,18.00
2019-04-26T07:29:16.220Z,18.20
2019-04-26T07:31:59.216Z,18.20
2019-04-26T07:34:58.346Z,18.30
2019-04-26T07:37:54.369Z,18.50
2019-04-26T07:40:36.479Z,18.70
2019-04-26T07:43:37.765Z,18.80
2019-04-26T07:46:17.199Z,18.90
2019-04-26T07:49:15.924Z,19.10
2019-04-26T07:52:06.416Z,19.20
2019-04-26T07:55:06.572Z,19.20
2019-04-26T07:58:03.594Z,19.50
2019-04-26T08:00:45.171Z,19.50
2019-04-26T08:03:19.091Z,19.50
2019-04-26T08:05:52.922Z,19.70
2019-04-26T08:08:23.017Z,19.90
2019-04-26T08:11:06.226Z,20.00
2019-04-26T08:13:36.683Z,20.10
2019-04-26T08:16:19.256Z,20.00
2019-04-26T08:18:51.443Z,20.20
2019-04-26T08:21:24.353Z,20.50
2019-04-26T08:23:56.547Z,20.50
2019-04-26T08:26:27.815Z,20.50
2019-04-26T08:29:00.633Z,20.60
2019-04-26T08:31:30.417Z,20.60
2019-04-26T08:34:02.711Z,20.70
2019-04-26T08:36:32.837Z,20.50
2019-04-26T08:39:01.110Z,20.60
2019-04-26T08:41:29.981Z,20.70
2019-04-26T08:44:03.629Z,20.70
2019-04-26T08:46:36.269Z,20.90
2019-04-26T08:49:11.134Z,21.00
2019-04-26T08:51:38.991Z,21.00
2019-04-26T08:54:08.408Z,21.10
2019-04-26T08:56:42.033Z,21.40
2019-04-26T08:59:21.210Z,21.60
2019-04-26T09:01:51.758Z,21.80
2019-04-26T09:04:33.061Z,22.00
2019-04-26T09:07:08.176Z,22.20
2019-04-26T09:09:37.344Z,22.30
2019-04-26T09:12:08.422Z,22.40
2019-04-26T09:14:39.066Z,22.50
2019-04-26T09:17:05.986Z,22.60
2019-04-26T09:19:32.519Z,22.70
2019-04-26T09:22:13.595Z,22.70
2019-04-26T09:24:42.213Z,22.70
2019-04-26T09:27:10.552Z,22.70
2019-04-26T09:29:47.901Z,22.30
2019-04-26T09:32:16.547Z,22.30
2019-04-26T09:34:43.460Z,22.30
2019-04-26T09:37:10.024Z,22.50
2019-04-26T09:39:36.492Z,22.80
2019-04-26T09:42:24.275Z,22.50
2019-04-26T09:45:09.445Z,22.30
2019-04-26T09:47:44.105Z,22.60
2019-04-26T09:50:15.331Z,22.80
2019-04-26T09:52:42.879Z,22.60
2019-04-26T09:55:09.525Z,22.80
2019-04-26T09:57:36.067Z,23.00
2019-04-26T10:00:06.310Z,23.40
2019-04-26T10:02:35.418Z,23.00
2019-04-26T10:05:07.924Z,23.00
2019-04-26T10:07:33.420Z,23.40
2019-04-26T10:10:01.524Z,23.30
2019-04-26T10:12:36.301Z,23.40
2019-04-26T10:15:09.755Z,23.60
2019-04-26T10:17:36.311Z,23.50
2019-04-26T10:20:05.168Z,23.80
2019-04-26T10:22:32.533Z,24.00
2019-04-26T10:25:02.300Z,24.20
2019-04-26T10:27:27.416Z,24.20
2019-04-26T10:29:56.587Z,24.10
2019-04-26T10:32:26.341Z,24.10
2019-04-26T10:34:50.571Z,24.00
2019-04-26T10:37:17.236Z,24.10
2019-04-26T10:39:43.774Z,24.30
2019-04-26T10:42:10.351Z,24.30
2019-04-26T10:44:39.791Z,24.20
2019-04-26T10:47:06.024Z,24.30
2019-04-26T10:49:37.166Z,24.10
2019-04-26T10:52:11.954Z,24.40
2019-04-26T10:54:41.065Z,24.40
2019-04-26T10:57:10.949Z,24.30
2019-04-26T10:59:44.114Z,24.50
2019-04-26T11:02:13.510Z,24.60
2019-04-26T11:04:41.450Z,24.60
2019-04-26T11:07:08.401Z,24.70
2019-04-26T11:09:34.866Z,24.90
2019-04-26T11:12:01.517Z,24.80
2019-04-26T11:14:28.195Z,24.90
2019-04-26T11:16:54.954Z,25.10
2019-04-26T11:19:21.628Z,25.00
2019-04-26T11:21:51.016Z,25.00
2019-04-26T11:24:19.534Z,25.10
2019-04-26T11:26:44.892Z,25.20
2019-04-26T11:29:11.358Z,25.50
2019-04-26T11:31:37.943Z,25.50
2019-04-26T11:34:05.305Z,25.30
2019-04-26T11:36:32.366Z,25.40
2019-04-26T11:39:01.358Z,25.20
2019-04-26T11:41:27.143Z,25.40
2019-04-26T11:43:54.560Z,25.30
2019-04-26T11:46:26.873Z,25.30
2019-04-26T11:48:58.582Z,25.80
2019-04-26T11:51:19.137Z,26.00
2019-04-26T11:53:46.239Z,25.50
2019-04-26T11:56:12.747Z,25.20
2019-04-26T11:58:39.306Z,24.80
2019-04-26T12:01:07.679Z,24.70
2019-04-26T12:03:34.155Z,25.20
2019-04-26T12:06:02.518Z,25.10
2019-04-26T12:08:49.182Z,24.90
2019-04-26T12:11:18.532Z,24.60
2019-04-26T12:13:44.002Z,24.40
2019-04-26T12:16:10.561Z,24.60
2019-04-26T12:18:40.203Z,24.40
2019-04-26T12:21:05.516Z,24.50
2019-04-26T12:23:32.097Z,24.30
2019-04-26T12:25:58.618Z,24.50
2019-04-26T12:28:25.057Z,24.60
2019-04-26T12:30:54.180Z,24.40
2019-04-26T12:33:21.204Z,24.60
2019-04-26T12:35:47.761Z,24.40
2019-04-26T12:38:14.224Z,24.50
2019-04-26T12:40:42.359Z,24.50
2019-04-26T12:43:09.030Z,24.70
2019-04-26T12:45:37.618Z,24.60
2019-04-26T12:48:07.997Z,24.90
2019-04-26T12:50:37.643Z,24.60
2019-04-26T12:53:02.830Z,24.50
2019-04-26T12:55:29.793Z,24.30
2019-04-26T12:57:56.236Z,24.10
2019-04-26T13:00:24.801Z,24.20
2019-04-26T13:02:54.207Z,24.40
2019-04-26T13:05:20.626Z,24.00
2019-04-26T13:07:52.998Z,23.90
2019-04-26T13:10:24.155Z,23.90
2019-04-26T13:13:04.655Z,23.90
2019-04-26T13:15:59.655Z,23.80
2019-04-26T13:18:26.322Z,23.80
2019-04-26T13:20:53.317Z,23.50
2019-04-26T13:23:19.783Z,23.30
2019-04-26T13:25:46.252Z,23.10
2019-04-26T13:28:15.705Z,23.30
2019-04-26T13:30:43.618Z,23.20
2019-04-26T13:33:10.523Z,23.00
2019-04-26T13:35:36.998Z,22.70
2019-04-26T13:38:05.074Z,22.60
2019-04-26T13:40:32.025Z,22.50
2019-04-26T13:42:58.472Z,22.30
2019-04-26T13:45:39.020Z,22.20
2019-04-26T13:48:24.144Z,22.00
2019-04-26T13:51:11.888Z,21.80
2019-04-26T13:53:38.357Z,21.50
2019-04-26T13:56:04.944Z,21.30
2019-04-26T13:58:31.595Z,21.10
2019-04-26T14:00:58.133Z,20.90
2019-04-26T14:03:27.207Z,20.70
2019-04-26T14:05:52.851Z,20.60
2019-04-26T14:08:19.332Z,20.40
2019-04-26T14:10:49.914Z,20.30
2019-04-26T14:13:14.351Z,20.20
2019-04-26T14:15:44.054Z,20.20
2019-04-26T14:18:10.178Z,20.20
2019-04-26T14:20:36.652Z,20.10
2019-04-26T14:23:15.408Z,20.00
2019-04-26T14:25:42.199Z,19.90
2019-04-26T14:28:08.651Z,19.70
2019-04-26T14:30:37.473Z,19.60
2019-04-26T14:33:03.434Z,19.80
2019-04-26T14:35:29.960Z,19.50
2019-04-26T14:38:00.473Z,19.40
2019-04-26T14:40:27.298Z,19.30
2019-04-26T14:43:06.057Z,19.40
2019-04-26T14:45:23.932Z,19.30
2019-04-26T14:47:50.955Z,19.20
2019-04-26T14:50:17.746Z,19.30
2019-04-26T14:52:44.190Z,19.20
2019-04-26T14:55:10.663Z,19.20
2019-04-26T14:57:37.483Z,19.30
2019-04-26T15:00:06.866Z,19.10
2019-04-26T15:02:35.535Z,19.20
2019-04-26T15:05:09.294Z,19.30
2019-04-26T15:07:48.590Z,19.30
2019-04-26T15:10:06.907Z,19.20
2019-04-26T15:12:45.692Z,19.20
2019-04-26T15:15:04.215Z,19.20
2019-04-26T15:17:32.736Z,19.10
2019-04-26T15:19:59.396Z,19.10
2019-04-26T15:22:26.095Z,19.10
2019-04-26T15:24:52.770Z,19.00
2019-04-26T15:27:19.310Z,19.10
2019-04-26T15:29:45.810Z,19.10
2019-04-26T15:32:13.121Z,19.00
2019-04-26T15:34:39.814Z,18.90
2019-04-26T15:37:06.380Z,18.90
2019-04-26T15:39:42.415Z,19.00
2019-04-26T15:42:31.696Z,19.00
2019-04-26T15:45:09.181Z,19.00
2019-04-26T15:47:37.661Z,19.10
2019-04-26T15:50:10.135Z,19.10
2019-04-26T15:52:39.771Z,19.20
2019-04-26T15:55:08.848Z,19.30
2019-04-26T15:57:40.405Z,19.40
2019-04-26T16:00:12.448Z,19.40
2019-04-26T16:02:42.564Z,19.50
2019-04-26T16:05:09.351Z,19.50
2019-04-26T16:07:40.468Z,19.60
2019-04-26T16:10:07.346Z,19.70
2019-04-26T16:12:36.021Z,19.70
2019-04-26T16:15:10.700Z,19.70
2019-04-26T16:17:36.199Z,19.60
2019-04-26T16:20:09.033Z,19.70
2019-04-26T16:22:55.465Z,19.60
2019-04-26T16:25:23.100Z,19.60
2019-04-26T16:27:52.635Z,19.40
2019-04-26T16:30:37.345Z,19.30
2019-04-26T16:33:09.602Z,19.20
2019-04-26T16:35:40.040Z,19.20
2019-04-26T16:38:25.216Z,19.20
2019-04-26T16:40:53.514Z,19.10
2019-04-26T16:43:37.066Z,19.00
2019-04-26T16:45:49.902Z,18.90
2019-04-26T16:48:24.322Z,18.80
2019-04-26T16:50:47.476Z,18.80
2019-04-26T16:53:36.280Z,18.50
2019-04-26T16:55:48.893Z,18.40
2019-04-26T16:58:12.633Z,18.30
2019-04-26T17:00:51.618Z,18.30
2019-04-26T17:03:08.308Z,18.20
2019-04-26T17:05:47.585Z,18.30
2019-04-26T17:08:05.056Z,18.50
2019-04-26T17:10:32.933Z,18.30
2019-04-26T17:12:59.984Z,18.20
2019-04-26T17:15:26.833Z,18.20
2019-04-26T17:17:54.226Z,18.20
2019-04-26T17:20:20.901Z,18.20
2019-04-26T17:22:59.518Z,18.20
2019-04-26T17:25:36.048Z,18.20
2019-04-26T17:28:03.451Z,18.20
2019-04-26T17:30:34.445Z,18.30
2019-04-26T17:33:00.655Z,18.10
2019-04-26T17:35:27.465Z,18.00
2019-04-26T17:37:57.336Z,18.00
2019-04-26T17:40:25.439Z,18.00
2019-04-26T17:42:54.300Z,18.00
2019-04-26T17:45:21.650Z,17.90
2019-04-26T17:47:48.668Z,17.70
2019-04-26T17:50:15.950Z,17.70
2019-04-26T17:52:45.870Z,17.60
2019-04-26T17:55:15.258Z,17.60
2019-04-26T17:57:48.675Z,17.70
2019-04-26T18:00:27.126Z,17.80
2019-04-26T18:03:01.571Z,17.80
2019-04-26T18:05:55.974Z,17.80
2019-04-26T18:08:31.341Z,17.70
2019-04-26T18:10:42.755Z,17.70
2019-04-26T18:13:11.185Z,17.50
2019-04-26T18:15:39.968Z,17.50
2019-04-26T18:18:17.167Z,17.60
2019-04-26T18:20:44.546Z,17.50
2019-04-26T18:23:19.451Z,17.50
2019-04-26T18:25:46.510Z,17.40
2019-04-26T18:28:15.912Z,17.30
2019-04-26T18:30:46.240Z,17.20
2019-04-26T18:33:11.397Z,17.10
2019-04-26T18:35:38.041Z,17.10
2019-04-26T18:38:08.525Z,17.00
2019-04-26T18:40:56.338Z,17.00
2019-04-26T18:43:03.496Z,17.00
2019-04-26T18:45:30.370Z,16.70
2019-04-26T18:48:01.316Z,16.80
2019-04-26T18:50:28.514Z,16.70
2019-04-26T18:52:59.852Z,16.40
2019-04-26T18:55:30.163Z,16.50
2019-04-26T18:58:01.478Z,16.50
2019-04-26T19:00:36.394Z,16.50
2019-04-26T19:03:03.925Z,16.50
2019-04-26T19:05:30.578Z,16.50
2019-04-26T19:07:57.293Z,16.50
2019-04-26T19:10:25.850Z,16.40
2019-04-26T19:12:56.396Z,16.40
2019-04-26T19:15:41.858Z,16.30
2019-04-26T19:18:22.525Z,16.20
2019-04-26T19:20:51.145Z,16.20
2019-04-26T19:23:17.840Z,16.10
2019-04-26T19:25:44.472Z,16.00
2019-04-26T19:28:12.128Z,16.00
2019-04-26T19:30:39.909Z,16.10
2019-04-26T19:33:11.586Z,16.10
2019-04-26T19:35:39.325Z,16.00
2019-04-26T19:38:07.383Z,16.00
2019-04-26T19:40:34.253Z,15.80
2019-04-26T19:43:03.182Z,15.60
2019-04-26T19:45:39.587Z,15.70
2019-04-26T19:48:07.890Z,15.50
2019-04-26T19:50:36.433Z,15.50
2019-04-26T19:53:16.483Z,15.40
2019-04-26T19:55:57.252Z,15.20
2019-04-26T19:58:28.669Z,15.10
2019-04-26T20:00:55.324Z,15.20
2019-04-26T20:03:22.000Z,15.30
2019-04-26T20:05:48.587Z,15.40
2019-04-26T20:08:16.183Z,15.40
2019-04-26T20:10:45.475Z,15.60
2019-04-26T20:13:15.066Z,15.70
2019-04-26T20:15:39.667Z,15.50
2019-04-26T20:18:06.464Z,15.50
2019-04-26T20:20:36.269Z,15.50
2019-04-26T20:23:04.145Z,15.40
2019-04-26T20:25:31.086Z,15.40
2019-04-26T20:27:59.868Z,15.30
2019-04-26T20:30:28.161Z,15.30
2019-04-26T20:32:56.433Z,15.40
2019-04-26T20:35:26.713Z,15.40
2019-04-26T20:37:56.306Z,15.50
2019-04-26T20:40:25.159Z,15.40
2019-04-26T20:42:51.187Z,15.40
2019-04-26T20:45:18.427Z,15.10
2019-04-26T20:47:46.828Z,15.20
2019-04-26T20:50:13.941Z,15.30
2019-04-26T20:52:41.429Z,15.10
2019-04-26T20:55:08.260Z,15.20
2019-04-26T20:57:34.763Z,15.10
2019-04-26T21:00:05.342Z,15.10
2019-04-26T21:02:32.542Z,15.10
2019-04-26T21:04:59.151Z,14.90
2019-04-26T21:07:25.591Z,14.80
2019-04-26T21:09:52.345Z,14.70
2019-04-26T21:12:19.118Z,14.80
2019-04-26T21:14:45.710Z,14.80
2019-04-26T21:17:13.478Z,14.80
2019-04-26T21:19:41.707Z,14.70
2019-04-26T21:22:08.267Z,14.70
2019-04-26T21:24:39.336Z,14.80
2019-04-26T21:27:21.525Z,14.80
2019-04-26T21:29:58.945Z,14.80
2019-04-26T21:32:30.773Z,14.70
2019-04-26T21:34:58.204Z,14.80
2019-04-26T21:37:26.572Z,14.90
2019-04-26T21:39:57.970Z,15.00
2019-04-26T21:42:25.852Z,14.90
2019-04-26T21:44:53.226Z,14.90
2019-04-26T21:47:20.690Z,14.90
2019-04-26T21:49:47.124Z,14.70
2019-04-26T21:52:13.793Z,14.60
2019-04-26T21:54:40.222Z,14.70
2019-04-26T21:57:06.648Z,14.80
2019-04-26T21:59:40.695Z,14.70
2019-04-26T22:02:03.270Z,14.70
2019-04-26T22:04:36.336Z,14.70
2019-04-26T22:06:59.825Z,14.70
2019-04-26T22:09:40.798Z,14.70
2019-04-26T22:12:09.137Z,14.70
2019-04-26T22:14:37.626Z,14.70
2019-04-26T22:17:06.085Z,14.60
2019-04-26T22:19:35.318Z,14.60
2019-04-26T22:22:15.124Z,14.60
2019-04-26T22:24:43.636Z,14.70
2019-04-26T22:27:11.119Z,14.60
2019-04-26T22:29:37.660Z,14.40
2019-04-26T22:32:04.498Z,14.50
2019-04-26T22:34:31.060Z,14.50
2019-04-26T22:36:57.515Z,14.30
2019-04-26T22:39:24.484Z,14.20
2019-04-26T22:41:51.288Z,13.90
2019-04-26T22:44:31.258Z,13.80
2019-04-26T22:47:03.651Z,13.70
2019-04-26T22:49:30.503Z,13.70
2019-04-26T22:51:56.938Z,13.70
2019-04-26T22:54:24.913Z,13.70
2019-04-26T22:56:52.042Z,13.80
2019-04-26T22:59:20.021Z,13.60
2019-04-26T23:01:48.767Z,13.50
2019-04-26T23:04:16.222Z,13.50
2019-04-26T23:06:46.810Z,13.50
2019-04-26T23:09:16.839Z,13.50
2019-04-26T23:11:45.289Z,13.60
2019-04-26T23:14:19.141Z,13.40
2019-04-26T23:17:08.289Z,13.30
2019-04-26T23:19:54.228Z,13.20
2019-04-26T23:22:18.426Z,13.20
2019-04-26T23:24:45.166Z,13.10
2019-04-26T23:27:16.374Z,13.10
2019-04-26T23:29:41.543Z,13.10
2019-04-26T23:32:12.115Z,12.90
2019-04-26T23:34:36.238Z,12.80
2019-04-26T23:37:03.236Z,12.70
2019-04-26T23:39:29.849Z,12.70
2019-04-26T23:41:56.326Z,12.60
2019-04-26T23:44:23.254Z,12.50
2019-04-26T23:46:49.948Z,12.40
2019-04-26T23:49:19.283Z,12.30
2019-04-26T23:51:45.834Z,12.40
2019-04-26T23:54:13.742Z,12.40
2019-04-26T23:56:40.336Z,12.30
2019-04-26T23:59:06.805Z,12.20
